sensor_id;sensor_type;location;lat;lon;timestamp;pressure;altitude;pressure_sealevel;temperature;humidity
62201;BME280;48197;42.732;27.192;2023-07-31T00:02:16;99122.47;;;17.85;100.00
62201;BME280;48197;42.732;27.192;2023-07-31T00:04:42;99120.63;;;17.82;100.00
62201;BME280;48197;42.732;27.192;2023-07-31T00:07:09;99112.53;;;17.84;100.00
62201;BME280;48197;42.732;27.192;2023-07-31T00:09:36;99116.09;;;17.85;100.00
62201;BME280;48197;42.732;27.192;2023-07-31T00:12:02;99120.28;;;17.89;100.00
62201;BME280;48197;42.732;27.192;2023-07-31T00:14:29;99124.91;;;18.02;100.00
62201;BME280;48197;42.732;27.192;2023-07-31T00:16:56;99130.00;;;18.12;100.00
62201;BME280;48197;42.732;27.192;2023-07-31T00:19:23;99119.13;;;18.14;100.00
62201;BME280;48197;42.732;27.192;2023-07-31T00:21:49;99115.25;;;18.12;100.00
62201;BME280;48197;42.732;27.192;2023-07-31T00:24:17;99111.66;;;18.11;100.00
62201;BME280;48197;42.732;27.192;2023-07-31T00:26:44;99114.81;;;18.04;100.00
62201;BME280;48197;42.732;27.192;2023-07-31T00:29:10;99109.56;;;17.97;100.00
62201;BME280;48197;42.732;27.192;2023-07-31T00:31:37;99097.31;;;17.85;100.00
62201;BME280;48197;42.732;27.192;2023-07-31T00:34:04;99104.63;;;17.83;100.00
62201;BME280;48197;42.732;27.192;2023-07-31T00:36:31;99107.41;;;17.83;100.00
62201;BME280;48197;42.732;27.192;2023-07-31T00:38:58;99108.63;;;17.82;100.00
62201;BME280;48197;42.732;27.192;2023-07-31T00:41:25;99103.84;;;17.82;100.00
62201;BME280;48197;42.732;27.192;2023-07-31T00:43:52;99102.91;;;17.85;100.00
62201;BME280;48197;42.732;27.192;2023-07-31T00:46:19;99094.03;;;17.87;100.00
62201;BME280;48197;42.732;27.192;2023-07-31T00:48:46;99093.09;;;17.90;100.00
62201;BME280;48197;42.732;27.192;2023-07-31T00:51:14;99097.47;;;17.91;100.00
62201;BME280;48197;42.732;27.192;2023-07-31T00:53:40;99112.97;;;17.92;100.00
62201;BME280;48197;42.732;27.192;2023-07-31T00:56:07;99124.63;;;17.90;100.00
62201;BME280;48197;42.732;27.192;2023-07-31T00:58:34;99140.94;;;17.83;100.00
62201;BME280;48197;42.732;27.192;2023-07-31T01:01:01;99154.75;;;17.77;100.00
62201;BME280;48197;42.732;27.192;2023-07-31T01:03:28;99165.47;;;17.60;100.00
62201;BME280;48197;42.732;27.192;2023-07-31T01:05:58;99169.81;;;17.33;100.00
62201;BME280;48197;42.732;27.192;2023-07-31T01:11:05;99152.53;;;16.89;100.00
62201;BME280;48197;42.732;27.192;2023-07-31T01:13:34;99128.16;;;16.80;100.00
62201;BME280;48197;42.732;27.192;2023-07-31T01:16:01;99123.47;;;16.77;100.00
62201;BME280;48197;42.732;27.192;2023-07-31T01:18:28;99117.09;;;16.77;100.00
62201;BME280;48197;42.732;27.192;2023-07-31T01:20:57;99107.06;;;16.79;100.00
62201;BME280;48197;42.732;27.192;2023-07-31T01:28:33;99133.91;;;16.86;100.00
62201;BME280;48197;42.732;27.192;2023-07-31T01:31:03;99113.44;;;16.89;100.00
62201;BME280;48197;42.732;27.192;2023-07-31T01:33:32;99118.25;;;16.88;100.00
62201;BME280;48197;42.732;27.192;2023-07-31T01:35:58;99116.56;;;16.91;100.00
62201;BME280;48197;42.732;27.192;2023-07-31T01:38:25;99106.66;;;16.99;100.00
62201;BME280;48197;42.732;27.192;2023-07-31T01:40:52;99097.22;;;17.24;100.00
62201;BME280;48197;42.732;27.192;2023-07-31T01:43:20;99085.69;;;17.41;100.00
62201;BME280;48197;42.732;27.192;2023-07-31T01:45:47;99090.38;;;17.44;100.00
62201;BME280;48197;42.732;27.192;2023-07-31T01:48:14;99092.53;;;17.49;100.00
62201;BME280;48197;42.732;27.192;2023-07-31T01:50:40;99086.44;;;17.60;100.00
62201;BME280;48197;42.732;27.192;2023-07-31T01:53:07;99092.94;;;17.75;100.00
62201;BME280;48197;42.732;27.192;2023-07-31T01:55:33;99090.59;;;17.92;100.00
62201;BME280;48197;42.732;27.192;2023-07-31T01:58:00;99092.78;;;17.88;100.00
62201;BME280;48197;42.732;27.192;2023-07-31T02:00:26;99081.94;;;17.62;100.00
62201;BME280;48197;42.732;27.192;2023-07-31T02:02:53;99084.31;;;17.36;100.00
62201;BME280;48197;42.732;27.192;2023-07-31T02:05:19;99082.75;;;17.17;100.00
62201;BME280;48197;42.732;27.192;2023-07-31T02:07:46;99104.16;;;17.01;100.00
62201;BME280;48197;42.732;27.192;2023-07-31T02:10:12;99097.47;;;16.89;100.00
62201;BME280;48197;42.732;27.192;2023-07-31T02:12:39;99097.78;;;16.82;100.00
62201;BME280;48197;42.732;27.192;2023-07-31T02:15:05;99117.59;;;16.75;100.00
62201;BME280;48197;42.732;27.192;2023-07-31T02:17:32;99109.50;;;16.68;100.00
62201;BME280;48197;42.732;27.192;2023-07-31T02:20:00;99106.88;;;16.64;100.00
62201;BME280;48197;42.732;27.192;2023-07-31T02:22:26;99117.84;;;16.68;100.00
62201;BME280;48197;42.732;27.192;2023-07-31T02:24:53;99119.88;;;16.67;100.00
62201;BME280;48197;42.732;27.192;2023-07-31T02:27:20;99114.44;;;16.64;100.00
62201;BME280;48197;42.732;27.192;2023-07-31T02:29:50;99116.00;;;16.65;100.00
62201;BME280;48197;42.732;27.192;2023-07-31T02:32:17;99118.63;;;16.68;100.00
62201;BME280;48197;42.732;27.192;2023-07-31T02:34:43;99114.75;;;16.66;100.00
62201;BME280;48197;42.732;27.192;2023-07-31T02:37:11;99122.06;;;16.72;100.00
62201;BME280;48197;42.732;27.192;2023-07-31T02:39:37;99114.47;;;16.73;100.00
62201;BME280;48197;42.732;27.192;2023-07-31T02:42:05;99127.16;;;16.65;100.00
62201;BME280;48197;42.732;27.192;2023-07-31T02:44:31;99117.22;;;16.54;100.00
62201;BME280;48197;42.732;27.192;2023-07-31T02:46:58;99132.69;;;16.56;100.00
62201;BME280;48197;42.732;27.192;2023-07-31T02:49:25;99129.28;;;16.51;100.00
62201;BME280;48197;42.732;27.192;2023-07-31T02:51:52;99124.50;;;16.52;100.00
62201;BME280;48197;42.732;27.192;2023-07-31T02:54:19;99132.34;;;16.44;100.00
62201;BME280;48197;42.732;27.192;2023-07-31T02:56:47;99124.84;;;16.32;100.00
62201;BME280;48197;42.732;27.192;2023-07-31T02:59:14;99121.59;;;16.24;100.00
62201;BME280;48197;42.732;27.192;2023-07-31T03:01:41;99129.75;;;16.19;100.00
62201;BME280;48197;42.732;27.192;2023-07-31T03:04:08;99125.25;;;16.12;100.00
62201;BME280;48197;42.732;27.192;2023-07-31T03:06:35;99131.41;;;16.07;100.00
62201;BME280;48197;42.732;27.192;2023-07-31T03:09:02;99122.41;;;16.03;100.00
62201;BME280;48197;42.732;27.192;2023-07-31T03:11:28;99122.09;;;16.01;100.00
62201;BME280;48197;42.732;27.192;2023-07-31T03:13:55;99126.41;;;16.02;100.00
62201;BME280;48197;42.732;27.192;2023-07-31T03:16:22;99120.41;;;16.03;100.00
62201;BME280;48197;42.732;27.192;2023-07-31T03:18:48;99122.25;;;16.06;100.00
62201;BME280;48197;42.732;27.192;2023-07-31T03:21:15;99126.28;;;16.05;100.00
62201;BME280;48197;42.732;27.192;2023-07-31T03:23:42;99127.72;;;16.10;100.00
62201;BME280;48197;42.732;27.192;2023-07-31T03:26:09;99120.75;;;16.15;100.00
62201;BME280;48197;42.732;27.192;2023-07-31T03:28:37;99121.53;;;16.15;100.00
62201;BME280;48197;42.732;27.192;2023-07-31T03:31:04;99115.66;;;16.13;100.00
62201;BME280;48197;42.732;27.192;2023-07-31T03:33:30;99120.00;;;16.14;100.00
62201;BME280;48197;42.732;27.192;2023-07-31T03:35:57;99117.72;;;16.22;100.00
62201;BME280;48197;42.732;27.192;2023-07-31T03:38:24;99116.19;;;16.30;100.00
62201;BME280;48197;42.732;27.192;2023-07-31T03:40:52;99109.88;;;16.39;100.00
62201;BME280;48197;42.732;27.192;2023-07-31T03:43:18;99105.22;;;16.45;100.00
62201;BME280;48197;42.732;27.192;2023-07-31T03:45:45;99113.66;;;16.54;100.00
62201;BME280;48197;42.732;27.192;2023-07-31T03:48:13;99113.38;;;16.70;100.00
62201;BME280;48197;42.732;27.192;2023-07-31T03:50:39;99118.72;;;16.87;100.00
62201;BME280;48197;42.732;27.192;2023-07-31T03:53:06;99112.69;;;16.98;100.00
62201;BME280;48197;42.732;27.192;2023-07-31T03:55:34;99112.22;;;17.08;100.00
62201;BME280;48197;42.732;27.192;2023-07-31T03:58:01;99119.38;;;17.19;100.00
62201;BME280;48197;42.732;27.192;2023-07-31T04:00:28;99110.38;;;17.33;100.00
62201;BME280;48197;42.732;27.192;2023-07-31T04:02:55;99115.81;;;17.46;100.00
62201;BME280;48197;42.732;27.192;2023-07-31T04:05:22;99115.34;;;17.57;100.00
62201;BME280;48197;42.732;27.192;2023-07-31T04:07:48;99120.59;;;17.73;100.00
62201;BME280;48197;42.732;27.192;2023-07-31T04:10:14;99119.50;;;17.89;100.00
62201;BME280;48197;42.732;27.192;2023-07-31T04:12:40;99116.69;;;18.07;100.00
62201;BME280;48197;42.732;27.192;2023-07-31T04:15:07;99118.47;;;18.29;100.00
62201;BME280;48197;42.732;27.192;2023-07-31T04:17:32;99111.25;;;18.46;100.00
62201;BME280;48197;42.732;27.192;2023-07-31T04:19:59;99121.84;;;18.66;100.00
62201;BME280;48197;42.732;27.192;2023-07-31T04:22:25;99129.72;;;18.86;100.00
62201;BME280;48197;42.732;27.192;2023-07-31T04:24:52;99127.16;;;18.97;100.00
62201;BME280;48197;42.732;27.192;2023-07-31T04:27:19;99119.88;;;19.15;100.00
62201;BME280;48197;42.732;27.192;2023-07-31T04:29:45;99132.66;;;19.31;100.00
62201;BME280;48197;42.732;27.192;2023-07-31T04:32:13;99136.47;;;19.43;100.00
62201;BME280;48197;42.732;27.192;2023-07-31T04:34:43;99148.94;;;19.56;100.00
62201;BME280;48197;42.732;27.192;2023-07-31T04:37:09;99136.91;;;19.65;100.00
62201;BME280;48197;42.732;27.192;2023-07-31T04:39:36;99147.97;;;19.84;100.00
62201;BME280;48197;42.732;27.192;2023-07-31T04:42:03;99148.84;;;20.05;100.00
62201;BME280;48197;42.732;27.192;2023-07-31T04:44:29;99148.38;;;20.21;100.00
62201;BME280;48197;42.732;27.192;2023-07-31T04:46:56;99151.22;;;20.42;100.00
62201;BME280;48197;42.732;27.192;2023-07-31T04:49:23;99163.13;;;20.66;100.00
62201;BME280;48197;42.732;27.192;2023-07-31T04:51:50;99161.16;;;21.08;100.00
62201;BME280;48197;42.732;27.192;2023-07-31T04:54:17;99158.22;;;21.58;100.00
62201;BME280;48197;42.732;27.192;2023-07-31T04:56:44;99152.78;;;22.01;100.00
62201;BME280;48197;42.732;27.192;2023-07-31T04:59:10;99157.81;;;22.17;100.00
62201;BME280;48197;42.732;27.192;2023-07-31T05:01:37;99157.19;;;22.34;100.00
62201;BME280;48197;42.732;27.192;2023-07-31T05:04:04;99163.75;;;22.57;100.00
62201;BME280;48197;42.732;27.192;2023-07-31T05:06:30;99168.69;;;22.68;100.00
62201;BME280;48197;42.732;27.192;2023-07-31T05:08:56;99162.94;;;22.51;100.00
62201;BME280;48197;42.732;27.192;2023-07-31T05:11:23;99164.72;;;22.48;100.00
62201;BME280;48197;42.732;27.192;2023-07-31T05:13:50;99171.59;;;22.41;100.00
62201;BME280;48197;42.732;27.192;2023-07-31T05:16:17;99174.66;;;22.43;100.00
62201;BME280;48197;42.732;27.192;2023-07-31T05:18:44;99165.91;;;22.36;100.00
62201;BME280;48197;42.732;27.192;2023-07-31T05:21:11;99174.88;;;22.34;100.00
62201;BME280;48197;42.732;27.192;2023-07-31T05:23:38;99163.75;;;22.57;100.00
62201;BME280;48197;42.732;27.192;2023-07-31T05:26:05;99162.69;;;22.86;100.00
62201;BME280;48197;42.732;27.192;2023-07-31T05:28:34;99164.38;;;23.10;100.00
62201;BME280;48197;42.732;27.192;2023-07-31T05:31:02;99167.03;;;23.30;100.00
62201;BME280;48197;42.732;27.192;2023-07-31T05:33:29;99179.38;;;23.44;100.00
62201;BME280;48197;42.732;27.192;2023-07-31T05:35:56;99178.13;;;23.51;100.00
62201;BME280;48197;42.732;27.192;2023-07-31T05:38:23;99180.75;;;23.60;100.00
62201;BME280;48197;42.732;27.192;2023-07-31T05:40:49;99183.84;;;23.73;100.00
62201;BME280;48197;42.732;27.192;2023-07-31T05:43:16;99181.09;;;23.90;100.00
62201;BME280;48197;42.732;27.192;2023-07-31T05:45:42;99175.75;;;24.09;100.00
62201;BME280;48197;42.732;27.192;2023-07-31T05:48:09;99180.63;;;24.25;100.00
62201;BME280;48197;42.732;27.192;2023-07-31T05:50:36;99185.53;;;24.53;100.00
62201;BME280;48197;42.732;27.192;2023-07-31T05:53:06;99181.66;;;24.79;100.00
62201;BME280;48197;42.732;27.192;2023-07-31T05:55:34;99185.44;;;25.21;100.00
62201;BME280;48197;42.732;27.192;2023-07-31T05:58:02;99178.22;;;25.84;100.00
62201;BME280;48197;42.732;27.192;2023-07-31T06:00:28;99185.72;;;26.59;100.00
62201;BME280;48197;42.732;27.192;2023-07-31T06:02:56;99179.22;;;27.38;100.00
62201;BME280;48197;42.732;27.192;2023-07-31T06:05:23;99171.81;;;28.10;100.00
62201;BME280;48197;42.732;27.192;2023-07-31T06:07:50;99174.16;;;28.58;98.59
62201;BME280;48197;42.732;27.192;2023-07-31T06:10:15;99176.84;;;28.96;96.92
62201;BME280;48197;42.732;27.192;2023-07-31T06:12:42;99177.94;;;29.33;95.41
62201;BME280;48197;42.732;27.192;2023-07-31T06:15:08;99178.56;;;30.00;91.18
62201;BME280;48197;42.732;27.192;2023-07-31T06:17:36;99178.56;;;30.34;86.01
62201;BME280;48197;42.732;27.192;2023-07-31T06:20:02;99177.91;;;30.70;84.83
62201;BME280;48197;42.732;27.192;2023-07-31T06:22:31;99174.22;;;31.40;74.23
62201;BME280;48197;42.732;27.192;2023-07-31T06:24:59;99178.03;;;31.87;70.21
62201;BME280;48197;42.732;27.192;2023-07-31T06:27:26;99185.53;;;32.13;67.64
62201;BME280;48197;42.732;27.192;2023-07-31T06:29:53;99180.44;;;32.27;65.02
62201;BME280;48197;42.732;27.192;2023-07-31T06:32:19;99184.63;;;32.26;64.58
62201;BME280;48197;42.732;27.192;2023-07-31T06:34:46;99189.44;;;32.77;63.67
62201;BME280;48197;42.732;27.192;2023-07-31T06:37:13;99197.63;;;32.96;62.66
62201;BME280;48197;42.732;27.192;2023-07-31T06:39:39;99192.06;;;33.21;61.06
62201;BME280;48197;42.732;27.192;2023-07-31T06:42:07;99191.72;;;32.55;60.84
62201;BME280;48197;42.732;27.192;2023-07-31T06:44:33;99190.72;;;31.63;63.10
62201;BME280;48197;42.732;27.192;2023-07-31T06:47:00;99186.91;;;32.43;60.45
62201;BME280;48197;42.732;27.192;2023-07-31T06:49:27;99195.50;;;33.04;58.47
62201;BME280;48197;42.732;27.192;2023-07-31T06:51:53;99199.47;;;33.32;57.80
62201;BME280;48197;42.732;27.192;2023-07-31T06:54:20;99193.63;;;33.78;56.63
62201;BME280;48197;42.732;27.192;2023-07-31T06:56:48;99189.44;;;34.37;54.34
62201;BME280;48197;42.732;27.192;2023-07-31T06:59:15;99189.22;;;34.43;53.56
62201;BME280;48197;42.732;27.192;2023-07-31T07:01:45;99192.47;;;32.79;55.35
62201;BME280;48197;42.732;27.192;2023-07-31T07:04:13;99184.25;;;32.29;57.27
62201;BME280;48197;42.732;27.192;2023-07-31T07:06:40;99191.13;;;33.11;55.67
62201;BME280;48197;42.732;27.192;2023-07-31T07:09:06;99194.94;;;32.44;56.68
62201;BME280;48197;42.732;27.192;2023-07-31T07:11:34;99197.59;;;32.34;57.27
62201;BME280;48197;42.732;27.192;2023-07-31T07:14:01;99194.75;;;32.96;56.31
62201;BME280;48197;42.732;27.192;2023-07-31T07:16:29;99190.91;;;33.24;55.45
62201;BME280;48197;42.732;27.192;2023-07-31T07:18:56;99195.38;;;33.58;54.91
62201;BME280;48197;42.732;27.192;2023-07-31T07:21:24;99205.91;;;34.36;52.65
62201;BME280;48197;42.732;27.192;2023-07-31T07:23:50;99201.16;;;34.56;51.55
62201;BME280;48197;42.732;27.192;2023-07-31T07:26:17;99207.25;;;34.86;49.77
62201;BME280;48197;42.732;27.192;2023-07-31T07:28:43;99206.75;;;33.18;51.12
62201;BME280;48197;42.732;27.192;2023-07-31T07:31:09;99210.50;;;31.61;55.65
62201;BME280;48197;42.732;27.192;2023-07-31T07:33:36;99216.03;;;30.80;58.11
62201;BME280;48197;42.732;27.192;2023-07-31T07:36:03;99215.41;;;29.98;60.07
62201;BME280;48197;42.732;27.192;2023-07-31T07:38:30;99216.63;;;30.02;60.71
62201;BME280;48197;42.732;27.192;2023-07-31T07:40:56;99211.28;;;31.04;57.81
62201;BME280;48197;42.732;27.192;2023-07-31T07:43:24;99215.06;;;31.64;55.27
62201;BME280;48197;42.732;27.192;2023-07-31T07:45:51;99218.94;;;31.38;55.42
62201;BME280;48197;42.732;27.192;2023-07-31T07:48:17;99210.41;;;32.64;53.31
62201;BME280;48197;42.732;27.192;2023-07-31T07:50:43;99223.19;;;32.94;52.08
62201;BME280;48197;42.732;27.192;2023-07-31T07:53:10;99225.97;;;32.17;53.33
62201;BME280;48197;42.732;27.192;2023-07-31T07:55:37;99233.84;;;30.73;57.38
62201;BME280;48197;42.732;27.192;2023-07-31T07:58:05;99237.78;;;30.28;60.13
62201;BME280;48197;42.732;27.192;2023-07-31T08:00:31;99243.00;;;30.03;59.27
62201;BME280;48197;42.732;27.192;2023-07-31T08:02:58;99236.84;;;29.51;60.86
62201;BME280;48197;42.732;27.192;2023-07-31T08:05:25;99245.03;;;29.28;62.12
62201;BME280;48197;42.732;27.192;2023-07-31T08:07:51;99242.63;;;29.45;62.69
62201;BME280;48197;42.732;27.192;2023-07-31T08:10:18;99246.00;;;29.57;61.20
62201;BME280;48197;42.732;27.192;2023-07-31T08:12:45;99250.31;;;29.77;61.37
62201;BME280;48197;42.732;27.192;2023-07-31T08:15:12;99251.66;;;29.97;60.22
62201;BME280;48197;42.732;27.192;2023-07-31T08:17:37;99244.97;;;30.63;58.99
62201;BME280;48197;42.732;27.192;2023-07-31T08:20:04;99260.63;;;31.12;58.07
62201;BME280;48197;42.732;27.192;2023-07-31T08:22:32;99256.22;;;32.05;55.19
62201;BME280;48197;42.732;27.192;2023-07-31T08:24:58;99264.00;;;31.60;56.08
62201;BME280;48197;42.732;27.192;2023-07-31T08:27:24;99260.78;;;30.43;59.05
62201;BME280;48197;42.732;27.192;2023-07-31T08:29:51;99265.63;;;29.47;62.50
62201;BME280;48197;42.732;27.192;2023-07-31T08:32:18;99265.13;;;28.58;65.98
62201;BME280;48197;42.732;27.192;2023-07-31T08:34:45;99256.69;;;28.14;68.65
62201;BME280;48197;42.732;27.192;2023-07-31T08:37:12;99272.44;;;28.15;69.69
62201;BME280;48197;42.732;27.192;2023-07-31T08:39:39;99272.19;;;28.83;68.42
62201;BME280;48197;42.732;27.192;2023-07-31T08:42:07;99272.41;;;29.58;64.86
62201;BME280;48197;42.732;27.192;2023-07-31T08:44:34;99274.38;;;29.36;65.20
62201;BME280;48197;42.732;27.192;2023-07-31T08:47:01;99279.72;;;29.26;66.85
62201;BME280;48197;42.732;27.192;2023-07-31T08:49:29;99282.94;;;29.04;67.55
62201;BME280;48197;42.732;27.192;2023-07-31T08:51:57;99275.50;;;28.55;70.49
62201;BME280;48197;42.732;27.192;2023-07-31T08:54:24;99268.97;;;28.74;71.17
62201;BME280;48197;42.732;27.192;2023-07-31T08:56:55;99272.81;;;29.08;69.03
62201;BME280;48197;42.732;27.192;2023-07-31T08:59:22;99270.03;;;28.89;69.68
62201;BME280;48197;42.732;27.192;2023-07-31T09:01:50;99271.97;;;28.49;71.97
62201;BME280;48197;42.732;27.192;2023-07-31T09:04:19;99272.44;;;28.15;73.73
62201;BME280;48197;42.732;27.192;2023-07-31T09:06:47;99275.94;;;27.83;75.83
62201;BME280;48197;42.732;27.192;2023-07-31T09:09:15;99271.78;;;27.65;77.56
62201;BME280;48197;42.732;27.192;2023-07-31T09:11:42;99267.22;;;27.57;78.57
62201;BME280;48197;42.732;27.192;2023-07-31T09:14:09;99274.38;;;27.39;80.04
62201;BME280;48197;42.732;27.192;2023-07-31T09:47:37;99250.66;;;25.51;96.44
62201;BME280;48197;42.732;27.192;2023-07-31T09:50:07;99261.78;;;25.21;100.00
62201;BME280;48197;42.732;27.192;2023-07-31T09:52:34;99249.22;;;24.88;100.00
62201;BME280;48197;42.732;27.192;2023-07-31T09:55:03;99250.25;;;24.85;100.00
62201;BME280;48197;42.732;27.192;2023-07-31T09:57:31;99251.53;;;24.95;100.00
62201;BME280;48197;42.732;27.192;2023-07-31T09:59:58;99254.34;;;25.01;100.00
62201;BME280;48197;42.732;27.192;2023-07-31T10:02:25;99235.84;;;24.94;100.00
62201;BME280;48197;42.732;27.192;2023-07-31T10:04:54;99234.53;;;25.06;100.00
62201;BME280;48197;42.732;27.192;2023-07-31T10:07:25;99235.88;;;24.77;100.00
62201;BME280;48197;42.732;27.192;2023-07-31T10:09:52;99235.88;;;24.66;100.00
62201;BME280;48197;42.732;27.192;2023-07-31T10:12:21;99240.22;;;24.56;100.00
62201;BME280;48197;42.732;27.192;2023-07-31T10:14:51;99230.94;;;24.27;100.00
62201;BME280;48197;42.732;27.192;2023-07-31T10:17:21;99234.78;;;24.18;100.00
62201;BME280;48197;42.732;27.192;2023-07-31T10:19:49;99228.88;;;24.16;100.00
62201;BME280;48197;42.732;27.192;2023-07-31T10:22:15;99228.59;;;24.09;100.00
62201;BME280;48197;42.732;27.192;2023-07-31T10:24:48;99240.63;;;23.98;100.00
62201;BME280;48197;42.732;27.192;2023-07-31T10:27:16;99255.53;;;24.15;100.00
62201;BME280;48197;42.732;27.192;2023-07-31T10:29:43;99272.28;;;24.24;100.00
62201;BME280;48197;42.732;27.192;2023-07-31T10:32:13;99272.00;;;24.11;100.00
62201;BME280;48197;42.732;27.192;2023-07-31T10:34:40;99261.94;;;23.44;100.00
62201;BME280;48197;42.732;27.192;2023-07-31T10:37:20;99260.28;;;22.89;100.00
62201;BME280;48197;42.732;27.192;2023-07-31T10:39:56;99249.41;;;22.76;100.00
62201;BME280;48197;42.732;27.192;2023-07-31T10:42:30;99238.16;;;22.76;100.00
62201;BME280;48197;42.732;27.192;2023-07-31T10:45:01;99232.72;;;22.67;100.00
62201;BME280;48197;42.732;27.192;2023-07-31T10:47:28;99245.41;;;22.57;100.00
62201;BME280;48197;42.732;27.192;2023-07-31T10:50:47;99245.75;;;22.65;100.00
62201;BME280;48197;42.732;27.192;2023-07-31T10:52:46;99245.19;;;22.92;100.00
62201;BME280;48197;42.732;27.192;2023-07-31T10:57:49;99246.75;;;23.79;100.00
62201;BME280;48197;42.732;27.192;2023-07-31T11:00:22;99245.00;;;23.99;100.00
62201;BME280;48197;42.732;27.192;2023-07-31T11:06:01;99259.44;;;24.40;100.00
62201;BME280;48197;42.732;27.192;2023-07-31T11:08:33;99265.13;;;24.57;100.00
62201;BME280;48197;42.732;27.192;2023-07-31T11:13:30;99261.25;;;25.28;100.00
62201;BME280;48197;42.732;27.192;2023-07-31T11:15:57;99258.94;;;25.32;100.00
62201;BME280;48197;42.732;27.192;2023-07-31T11:18:24;99252.81;;;25.22;100.00
62201;BME280;48197;42.732;27.192;2023-07-31T11:20:51;99247.31;;;25.47;100.00
62201;BME280;48197;42.732;27.192;2023-07-31T11:23:17;99251.06;;;25.78;100.00
62201;BME280;48197;42.732;27.192;2023-07-31T11:25:43;99253.91;;;25.72;100.00
62201;BME280;48197;42.732;27.192;2023-07-31T11:28:11;99249.31;;;25.69;100.00
62201;BME280;48197;42.732;27.192;2023-07-31T11:30:38;99247.50;;;25.60;100.00
62201;BME280;48197;42.732;27.192;2023-07-31T11:33:05;99243.97;;;25.49;100.00
62201;BME280;48197;42.732;27.192;2023-07-31T11:35:33;99243.66;;;25.63;100.00
62201;BME280;48197;42.732;27.192;2023-07-31T11:38:00;99239.50;;;25.70;100.00
62201;BME280;48197;42.732;27.192;2023-07-31T11:40:28;99240.53;;;25.73;100.00
62201;BME280;48197;42.732;27.192;2023-07-31T11:42:58;99238.72;;;25.75;100.00
62201;BME280;48197;42.732;27.192;2023-07-31T11:45:31;99237.38;;;25.87;100.00
62201;BME280;48197;42.732;27.192;2023-07-31T11:47:59;99236.06;;;26.00;100.00
62201;BME280;48197;42.732;27.192;2023-07-31T11:50:26;99242.59;;;26.25;100.00
62201;BME280;48197;42.732;27.192;2023-07-31T11:52:54;99253.06;;;26.36;100.00
62201;BME280;48197;42.732;27.192;2023-07-31T11:55:22;99248.88;;;26.48;100.00
62201;BME280;48197;42.732;27.192;2023-07-31T11:57:49;99248.75;;;26.65;100.00
62201;BME280;48197;42.732;27.192;2023-07-31T12:00:16;99242.03;;;26.98;100.00
62201;BME280;48197;42.732;27.192;2023-07-31T12:02:43;99235.13;;;27.43;100.00
62201;BME280;48197;42.732;27.192;2023-07-31T12:05:13;99235.16;;;27.62;97.83
62201;BME280;48197;42.732;27.192;2023-07-31T12:07:54;99230.34;;;27.76;96.44
62201;BME280;48197;42.732;27.192;2023-07-31T12:10:24;99231.81;;;28.20;92.99
62201;BME280;48197;42.732;27.192;2023-07-31T12:13:03;99228.69;;;28.56;89.40
62201;BME280;48197;42.732;27.192;2023-07-31T12:15:40;99230.31;;;28.97;86.95
62201;BME280;48197;42.732;27.192;2023-07-31T12:18:07;99227.41;;;29.56;82.76
62201;BME280;48197;42.732;27.192;2023-07-31T12:20:34;99222.72;;;30.06;79.55
62201;BME280;48197;42.732;27.192;2023-07-31T12:23:01;99222.09;;;30.35;77.43
62201;BME280;48197;42.732;27.192;2023-07-31T12:25:31;99217.81;;;30.62;76.03
62201;BME280;48197;42.732;27.192;2023-07-31T12:27:57;99204.63;;;30.59;74.75
62201;BME280;48197;42.732;27.192;2023-07-31T12:30:41;99203.97;;;30.66;73.62
62201;BME280;48197;42.732;27.192;2023-07-31T12:33:12;99201.09;;;30.87;72.15
62201;BME280;48197;42.732;27.192;2023-07-31T12:35:43;99201.97;;;30.82;71.37
62201;BME280;48197;42.732;27.192;2023-07-31T12:38:11;99201.38;;;31.33;69.91
62201;BME280;48197;42.732;27.192;2023-07-31T12:40:41;99181.69;;;31.51;68.76
62201;BME280;48197;42.732;27.192;2023-07-31T12:43:08;99184.66;;;31.38;68.30
62201;BME280;48197;42.732;27.192;2023-07-31T12:45:35;99186.69;;;31.22;68.39
62201;BME280;48197;42.732;27.192;2023-07-31T12:48:01;99178.25;;;30.87;69.45
62201;BME280;48197;42.732;27.192;2023-07-31T12:50:28;99179.13;;;30.32;70.45
62201;BME280;48197;42.732;27.192;2023-07-31T12:52:56;99169.47;;;30.01;72.07
62201;BME280;48197;42.732;27.192;2023-07-31T12:55:22;99167.56;;;30.17;71.47
62201;BME280;48197;42.732;27.192;2023-07-31T12:57:49;99169.50;;;30.22;71.33
62201;BME280;48197;42.732;27.192;2023-07-31T13:00:17;99173.91;;;30.65;69.57
62201;BME280;48197;42.732;27.192;2023-07-31T13:02:44;99164.63;;;32.33;63.19
62201;BME280;48197;42.732;27.192;2023-07-31T13:05:12;99160.63;;;31.62;64.28
62201;BME280;48197;42.732;27.192;2023-07-31T13:07:40;99154.31;;;32.15;62.48
62201;BME280;48197;42.732;27.192;2023-07-31T13:10:07;99143.06;;;32.09;59.68
62201;BME280;48197;42.732;27.192;2023-07-31T13:12:34;99146.13;;;32.11;59.79
62201;BME280;48197;42.732;27.192;2023-07-31T13:15:01;99155.88;;;32.39;58.88
62201;BME280;48197;42.732;27.192;2023-07-31T13:17:28;99141.38;;;32.60;57.82
62201;BME280;48197;42.732;27.192;2023-07-31T13:19:54;99151.72;;;31.73;58.96
62201;BME280;48197;42.732;27.192;2023-07-31T13:22:21;99150.03;;;30.76;60.97
62201;BME280;48197;42.732;27.192;2023-07-31T13:24:47;99143.31;;;30.03;63.55
62201;BME280;48197;42.732;27.192;2023-07-31T13:27:14;99141.91;;;29.48;65.49
62201;BME280;48197;42.732;27.192;2023-07-31T13:29:45;99142.72;;;29.83;64.88
62201;BME280;48197;42.732;27.192;2023-07-31T13:32:12;99145.31;;;30.16;63.83